Time,TemperatureF,DewpointF,PressureIn,WindDirection,WindDirectionDegrees,WindSpeedMPH,WindSpeedGustMPH,Humidity,HourlyPrecipIn,Conditions,Clouds,dailyrainin,SoftwareType,DateUTC
2013-01-01 00:00:00,39.6,27.2,30.18,SW,226,0.0,0.0,61,0.00,,,0.00,Wunderground v.1.15,2013-01-01 05:00:00,
2013-01-01 00:02:00,39.6,27.2,30.18,SW,227,0.0,0.0,61,0.00,,,0.00,Wunderground v.1.15,2013-01-01 05:02:00,
2013-01-01 00:08:00,39.9,28.3,30.18,SW,227,0.0,0.0,63,0.00,,,0.00,Wunderground v.1.15,2013-01-01 05:08:00,
2013-01-01 00:14:00,40.1,27.7,30.18,WSW,237,0.0,0.0,61,0.00,,,0.00,Wunderground v.1.15,2013-01-01 05:14:00,
2013-01-01 00:20:00,40.4,27.2,30.17,WNW,284,0.0,0.0,59,0.00,,,0.00,Wunderground v.1.15,2013-01-01 05:20:00,
2013-01-01 00:26:00,40.7,27.1,30.16,WNW,284,0.0,0.0,58,0.00,,,0.00,Wunderground v.1.15,2013-01-01 05:26:00,
2013-01-01 00:30:00,40.8,26.7,30.15,WNW,284,0.0,0.0,57,0.00,,,0.00,Wunderground v.1.15,2013-01-01 05:30:00,
2013-01-01 00:36:00,41.0,26.9,30.16,WNW,292,0.0,0.0,57,0.00,,,0.00,Wunderground v.1.15,2013-01-01 05:36:00,
2013-01-01 00:42:00,41.2,26.7,30.16,West,273,0.0,0.0,56,0.00,,,0.00,Wunderground v.1.15,2013-01-01 05:42:00,
2013-01-01 00:48:00,41.3,26.3,30.15,NW,311,0.0,0.0,55,0.00,,,0.00,Wunderground v.1.15,2013-01-01 05:48:00,
2013-01-01 00:54:00,41.5,26.1,30.14,WNW,296,0.0,0.0,54,0.00,,,0.00,Wunderground v.1.15,2013-01-01 05:54:00,
2013-01-01 01:00:00,41.5,27.0,30.13,WNW,290,0.0,0.0,56,0.00,,,0.00,Wunderground v.1.15,2013-01-01 06:00:00,
2013-01-01 01:06:00,41.4,27.7,30.13,WNW,290,0.0,0.0,58,0.00,,,0.00,Wunderground v.1.15,2013-01-01 06:06:00,
2013-01-01 01:12:00,41.1,28.7,30.12,WNW,285,0.0,0.0,61,0.00,,,0.00,Wunderground v.1.15,2013-01-01 06:12:00,
2013-01-01 01:18:00,40.8,29.9,30.13,WNW,285,0.0,0.0,65,0.00,,,0.00,Wunderground v.1.15,2013-01-01 06:18:00,
2013-01-01 01:24:00,40.5,28.9,30.14,WNW,284,0.0,0.0,63,0.00,,,0.00,Wunderground v.1.15,2013-01-01 06:24:00,
2013-01-01 01:30:00,40.4,29.9,30.14,WNW,284,0.0,0.0,66,0.00,,,0.00,Wunderground v.1.15,2013-01-01 06:30:00,
2013-01-01 01:36:00,40.4,28.4,30.14,WNW,300,0.0,0.0,62,0.00,,,0.00,Wunderground v.1.15,2013-01-01 06:36:00,
2013-01-01 01:42:00,41.1,25.7,30.14,WNW,296,0.0,0.0,54,0.00,,,0.00,Wunderground v.1.15,2013-01-01 06:42:00,
2013-01-01 01:48:00,41.6,25.3,30.14,WNW,302,0.0,0.0,52,0.00,,,0.00,Wunderground v.1.15,2013-01-01 06:48:00,
2013-01-01 01:54:00,41.8,25.0,30.12,WNW,296,0.0,0.0,51,0.00,,,0.00,Wunderground v.1.15,2013-01-01 06:54:00,
2013-01-01 02:00:00,41.7,24.9,30.13,NW,304,0.0,0.0,51,0.00,,,0.00,Wunderground v.1.15,2013-01-01 07:00:00,
2013-01-01 02:06:00,41.6,24.8,30.14,NW,306,0.0,0.0,51,0.00,,,0.00,Wunderground v.1.15,2013-01-01 07:06:00,
2013-01-01 02:12:00,41.6,24.8,30.13,NW,311,0.0,0.0,51,0.00,,,0.00,Wunderground v.1.15,2013-01-01 07:12:00,
2013-01-01 02:18:00,41.5,24.7,30.13,WNW,299,0.0,0.0,51,0.00,,,0.00,Wunderground v.1.15,2013-01-01 07:18:00,
2013-01-01 02:24:00,41.5,24.7,30.13,NW,307,0.0,0.0,51,0.00,,,0.00,Wunderground v.1.15,2013-01-01 07:24:00,
2013-01-01 02:30:00,41.4,25.1,30.12,NW,307,0.0,0.0,52,0.00,,,0.00,Wunderground v.1.15,2013-01-01 07:30:00,
2013-01-01 02:36:00,41.3,25.4,30.12,NW,307,0.0,0.0,53,0.00,,,0.00,Wunderground v.1.15,2013-01-01 07:36:00,
2013-01-01 02:42:00,41.0,25.6,30.13,NW,307,0.0,0.0,54,0.00,,,0.00,Wunderground v.1.15,2013-01-01 07:42:00,
2013-01-01 02:48:00,40.8,25.0,30.14,West,273,0.0,0.0,53,0.00,,,0.00,Wunderground v.1.15,2013-01-01 07:48:00,
2013-01-01 02:54:00,40.7,25.3,30.14,WNW,302,0.0,0.0,54,0.00,,,0.00,Wunderground v.1.15,2013-01-01 07:54:00,
2013-01-01 03:00:00,40.6,25.2,30.13,NW,308,0.0,0.0,54,0.00,,,0.00,Wunderground v.1.15,2013-01-01 08:00:00,
2013-01-01 03:06:00,40.6,25.7,30.13,NW,304,0.0,0.0,55,0.00,,,0.00,Wunderground v.1.15,2013-01-01 08:06:00,
2013-01-01 03:12:00,40.5,25.6,30.13,NW,305,0.0,0.0,55,0.00,,,0.00,Wunderground v.1.15,2013-01-01 08:12:00,
2013-01-01 03:18:00,40.4,25.5,30.12,NW,306,0.0,0.0,55,0.00,,,0.00,Wunderground v.1.15,2013-01-01 08:18:00,
2013-01-01 03:24:00,40.3,25.8,30.12,WNW,302,0.0,0.0,56,0.00,,,0.00,Wunderground v.1.15,2013-01-01 08:24:00,
2013-01-01 03:30:00,40.3,25.8,30.12,WNW,297,0.0,0.0,56,0.00,,,0.00,Wunderground v.1.15,2013-01-01 08:30:00,
2013-01-01 03:36:00,40.2,26.2,30.11,WNW,302,0.0,0.0,57,0.00,,,0.00,Wunderground v.1.15,2013-01-01 08:36:00,
2013-01-01 03:42:00,40.0,26.0,30.11,NW,306,0.0,0.0,57,0.00,,,0.00,Wunderground v.1.15,2013-01-01 08:42:00,
2013-01-01 03:48:00,40.0,26.0,30.11,West,276,0.0,0.0,57,0.00,,,0.00,Wunderground v.1.15,2013-01-01 08:48:00,
2013-01-01 03:54:00,40.2,26.2,30.11,NW,304,0.0,0.0,57,0.00,,,0.00,Wunderground v.1.15,2013-01-01 08:54:00,
2013-01-01 04:00:00,40.2,26.6,30.11,NW,304,0.0,0.0,58,0.00,,,0.00,Wunderground v.1.15,2013-01-01 09:00:00,
2013-01-01 04:06:00,40.1,26.5,30.11,West,275,0.0,0.0,58,0.00,,,0.00,Wunderground v.1.15,2013-01-01 09:06:00,
2013-01-01 04:12:00,39.9,26.3,30.11,West,275,0.0,0.0,58,0.00,,,0.00,Wunderground v.1.15,2013-01-01 09:12:00,
2013-01-01 04:18:00,39.7,26.1,30.11,West,277,0.0,0.0,58,0.00,,,0.00,Wunderground v.1.15,2013-01-01 09:18:00,
2013-01-01 04:24:00,39.7,25.7,30.11,WNW,296,0.0,0.0,57,0.00,,,0.00,Wunderground v.1.15,2013-01-01 09:24:00,
2013-01-01 04:30:00,39.7,25.7,30.11,WNW,296,0.0,0.0,57,0.00,,,0.00,Wunderground v.1.15,2013-01-01 09:30:00,
2013-01-01 04:36:00,39.7,25.7,30.11,WNW,297,0.0,0.0,57,0.00,,,0.00,Wunderground v.1.15,2013-01-01 09:36:00,
2013-01-01 04:42:00,39.7,25.7,30.11,WNW,300,0.0,0.0,57,0.00,,,0.00,Wunderground v.1.15,2013-01-01 09:42:00,
2013-01-01 04:48:00,39.7,25.7,30.11,West,280,0.0,0.0,57,0.00,,,0.00,Wunderground v.1.15,2013-01-01 09:48:00,
2013-01-01 04:54:00,39.6,26.0,30.10,NW,310,0.0,0.0,58,0.00,,,0.00,Wunderground v.1.15,2013-01-01 09:54:00,
2013-01-01 05:00:00,39.5,26.3,30.10,NW,310,0.0,0.0,59,0.00,,,0.00,Wunderground v.1.15,2013-01-01 10:00:00,
2013-01-01 05:06:00,39.5,26.3,30.10,NW,310,0.0,0.0,59,0.00,,,0.00,Wunderground v.1.15,2013-01-01 10:06:00,
2013-01-01 05:12:00,39.4,25.8,30.11,WNW,292,0.0,0.0,58,0.00,,,0.00,Wunderground v.1.15,2013-01-01 10:12:00,
2013-01-01 05:18:00,39.3,26.2,30.10,WNW,288,0.0,0.0,59,0.00,,,0.00,Wunderground v.1.15,2013-01-01 10:18:00,
2013-01-01 05:24:00,39.2,26.1,30.10,WNW,288,0.0,0.0,59,0.00,,,0.00,Wunderground v.1.15,2013-01-01 10:24:00,
2013-01-01 05:30:00,39.1,26.0,30.10,WNW,288,0.0,0.0,59,0.00,,,0.00,Wunderground v.1.15,2013-01-01 10:30:00,
2013-01-01 05:36:00,39.1,26.8,30.10,WNW,294,0.0,0.0,61,0.00,,,0.00,Wunderground v.1.15,2013-01-01 10:36:00,
2013-01-01 05:42:00,39.1,26.8,30.11,NW,311,0.0,0.0,61,0.00,,,0.00,Wunderground v.1.15,2013-01-01 10:42:00,
2013-01-01 05:48:00,39.1,26.8,30.11,WNW,303,0.0,0.0,61,0.00,,,0.00,Wunderground v.1.15,2013-01-01 10:48:00,
2013-01-01 05:54:00,39.1,27.2,30.10,NW,306,0.0,0.0,62,0.00,,,0.00,Wunderground v.1.15,2013-01-01 10:54:00,
2013-01-01 06:00:00,39.2,27.7,30.12,West,270,0.0,0.0,63,0.00,,,0.00,Wunderground v.1.15,2013-01-01 11:00:00,
2013-01-01 06:06:00,39.2,27.3,30.11,WNW,295,0.0,0.0,62,0.00,,,0.00,Wunderground v.1.15,2013-01-01 11:06:00,
2013-01-01 06:12:00,39.3,27.0,30.12,NW,307,0.0,0.0,61,0.00,,,0.00,Wunderground v.1.15,2013-01-01 11:12:00,
2013-01-01 06:18:00,39.3,27.4,30.12,WNW,285,0.0,0.0,62,0.00,,,0.00,Wunderground v.1.15,2013-01-01 11:18:00,
2013-01-01 06:24:00,39.3,27.4,30.12,WNW,282,0.0,0.0,62,0.00,,,0.00,Wunderground v.1.15,2013-01-01 11:24:00,
2013-01-01 06:30:00,39.2,26.9,30.13,NW,310,0.0,0.0,61,0.00,,,0.00,Wunderground v.1.15,2013-01-01 11:30:00,
2013-01-01 06:36:00,39.4,26.2,30.13,WNW,294,0.0,0.0,59,0.00,,,0.00,Wunderground v.1.15,2013-01-01 11:36:00,
2013-01-01 06:42:00,39.6,25.2,30.13,NW,304,0.0,0.0,56,0.00,,,0.00,Wunderground v.1.15,2013-01-01 11:42:00,
2013-01-01 06:48:00,39.7,24.8,30.14,NW,308,0.0,0.0,55,0.00,,,0.00,Wunderground v.1.15,2013-01-01 11:48:00,
2013-01-01 06:54:00,40.0,24.7,30.14,West,278,0.0,0.0,54,0.00,,,0.00,Wunderground v.1.15,2013-01-01 11:54:00,
2013-01-01 07:00:00,40.2,24.0,30.14,WNW,289,0.0,0.0,52,0.00,,,0.00,Wunderground v.1.15,2013-01-01 12:00:00,
2013-01-01 07:06:00,40.4,24.1,30.14,NW,306,0.0,0.0,52,0.00,,,0.00,Wunderground v.1.15,2013-01-01 12:06:00,
2013-01-01 07:12:00,40.6,24.8,30.14,West,281,0.0,0.0,53,0.00,,,0.00,Wunderground v.1.15,2013-01-01 12:12:00,
2013-01-01 07:18:00,40.4,25.1,30.14,WNW,298,0.0,0.0,54,0.00,,,0.00,Wunderground v.1.15,2013-01-01 12:18:00,
2013-01-01 07:24:00,40.3,25.8,30.15,NW,315,0.0,0.0,56,0.00,,,0.00,Wunderground v.1.15,2013-01-01 12:24:00,
2013-01-01 07:30:00,40.2,27.0,30.14,WNW,300,0.0,0.0,59,0.00,,,0.00,Wunderground v.1.15,2013-01-01 12:30:00,
2013-01-01 07:36:00,40.1,28.1,30.15,West,269,0.0,0.0,62,0.00,,,0.00,Wunderground v.1.15,2013-01-01 12:36:00,
2013-01-01 07:42:00,39.6,28.0,30.15,WNW,295,0.0,0.0,63,0.00,,,0.00,Wunderground v.1.15,2013-01-01 12:42:00,
2013-01-01 07:48:00,39.3,28.5,30.15,West,269,0.0,0.0,65,0.00,,,0.00,Wunderground v.1.15,2013-01-01 12:48:00,
2013-01-01 07:54:00,39.2,28.8,30.14,West,263,0.0,0.0,66,0.00,,,0.00,Wunderground v.1.15,2013-01-01 12:54:00,
2013-01-01 08:00:00,39.2,29.9,30.13,South,179,0.0,0.0,69,0.00,,,0.00,Wunderground v.1.15,2013-01-01 13:00:00,
2013-01-01 08:06:00,39.2,30.2,30.13,South,182,0.0,0.0,70,0.00,,,0.00,Wunderground v.1.15,2013-01-01 13:06:00,
2013-01-01 08:12:00,39.2,31.3,30.14,South,182,0.0,0.0,73,0.00,,,0.00,Wunderground v.1.15,2013-01-01 13:12:00,
2013-01-01 08:18:00,39.2,31.6,30.13,SW,214,0.0,0.0,74,0.00,,,0.00,Wunderground v.1.15,2013-01-01 13:18:00,
2013-01-01 08:24:00,39.1,31.8,30.14,SW,223,0.0,0.0,75,0.00,,,0.00,Wunderground v.1.15,2013-01-01 13:24:00,
2013-01-01 08:30:00,38.9,32.3,30.14,NW,308,0.0,0.0,77,0.00,,,0.00,Wunderground v.1.15,2013-01-01 13:30:00,
2013-01-01 08:36:00,38.4,32.1,30.14,NW,313,0.0,0.0,78,0.00,,,0.01,Wunderground v.1.15,2013-01-01 13:36:00,
2013-01-01 08:42:00,38.1,31.8,30.14,NW,312,0.0,0.0,78,0.00,,,0.01,Wunderground v.1.15,2013-01-01 13:42:00,
2013-01-01 08:48:00,38.0,32.1,30.15,WNW,293,0.0,0.0,79,0.00,,,0.01,Wunderground v.1.15,2013-01-01 13:48:00,
2013-01-01 08:54:00,37.9,32.3,30.15,NW,307,0.0,0.0,80,0.00,,,0.01,Wunderground v.1.15,2013-01-01 13:54:00,
2013-01-01 09:00:00,37.8,32.5,30.14,NW,308,0.0,0.0,81,0.00,,,0.01,Wunderground v.1.15,2013-01-01 14:00:00,
2013-01-01 09:06:00,37.8,32.5,30.14,NW,308,0.0,0.0,81,0.00,,,0.01,Wunderground v.1.15,2013-01-01 14:06:00,
2013-01-01 09:12:00,37.8,32.2,30.14,NW,308,0.0,0.0,80,0.00,,,0.01,Wunderground v.1.15,2013-01-01 14:12:00,
2013-01-01 09:18:00,37.9,33.5,30.14,NW,308,0.0,0.0,84,0.00,,,0.01,Wunderground v.1.15,2013-01-01 14:18:00,
2013-01-01 09:24:00,37.9,33.5,30.15,NW,308,0.0,0.0,84,0.00,,,0.01,Wunderground v.1.15,2013-01-01 14:24:00,
2013-01-01 09:30:00,37.9,33.5,30.15,NW,308,0.0,0.0,84,0.00,,,0.01,Wunderground v.1.15,2013-01-01 14:30:00,
2013-01-01 09:36:00,38.0,33.9,30.15,NW,308,0.0,0.0,85,0.00,,,0.01,Wunderground v.1.15,2013-01-01 14:36:00,
2013-01-01 09:42:00,38.2,34.4,30.15,NW,308,0.0,0.0,86,0.00,,,0.01,Wunderground v.1.15,2013-01-01 14:42:00,
2013-01-01 09:48:00,38.6,34.8,30.14,SW,236,0.0,0.0,86,0.00,,,0.01,Wunderground v.1.15,2013-01-01 14:48:00,
2013-01-01 09:54:00,38.8,35.0,30.14,SW,236,0.0,0.0,86,0.00,,,0.01,Wunderground v.1.15,2013-01-01 14:54:00,
2013-01-01 10:00:00,39.0,34.3,30.16,West,271,0.0,0.0,83,0.00,,,0.02,Wunderground v.1.15,2013-01-01 15:00:00,
2013-01-01 10:06:00,39.2,33.9,30.15,West,261,0.0,0.0,81,0.00,,,0.02,Wunderground v.1.15,2013-01-01 15:06:00,
2013-01-01 10:12:00,39.2,34.2,30.15,West,261,0.0,0.0,82,0.00,,,0.02,Wunderground v.1.15,2013-01-01 15:12:00,
2013-01-01 10:18:00,39.3,34.9,30.16,West,261,0.0,0.0,84,0.00,,,0.02,Wunderground v.1.15,2013-01-01 15:18:00,
2013-01-01 10:24:00,39.3,34.6,30.14,West,261,0.0,0.0,83,0.00,,,0.02,Wunderground v.1.15,2013-01-01 15:24:00,
2013-01-01 10:30:00,39.3,34.3,30.15,West,261,0.0,0.0,82,0.00,,,0.02,Wunderground v.1.15,2013-01-01 15:30:00,
2013-01-01 10:36:00,39.5,35.1,30.15,West,262,0.0,0.0,84,0.00,,,0.02,Wunderground v.1.15,2013-01-01 15:36:00,
2013-01-01 10:42:00,39.6,35.2,30.14,West,262,0.0,0.0,84,0.00,,,0.02,Wunderground v.1.15,2013-01-01 15:42:00,
2013-01-01 10:48:00,39.7,35.3,30.14,West,262,0.0,0.0,84,0.00,,,0.02,Wunderground v.1.15,2013-01-01 15:48:00,
2013-01-01 10:54:00,39.8,35.4,30.14,West,262,0.0,0.0,84,0.00,,,0.02,Wunderground v.1.15,2013-01-01 15:54:00,
2013-01-01 11:00:00,39.9,35.2,30.14,West,262,0.0,0.0,83,0.00,,,0.02,Wunderground v.1.15,2013-01-01 16:00:00,
2013-01-01 11:06:00,39.9,34.9,30.14,West,262,0.0,0.0,82,0.00,,,0.02,Wunderground v.1.15,2013-01-01 16:06:00,
2013-01-01 11:12:00,40.0,35.6,30.14,West,263,0.0,0.0,84,0.00,,,0.02,Wunderground v.1.15,2013-01-01 16:12:00,
2013-01-01 11:18:00,40.0,35.3,30.14,West,263,0.0,0.0,83,0.00,,,0.02,Wunderground v.1.15,2013-01-01 16:18:00,
2013-01-01 11:24:00,40.1,35.4,30.13,West,263,0.0,0.0,83,0.00,,,0.02,Wunderground v.1.15,2013-01-01 16:24:00,
2013-01-01 11:30:00,40.2,35.4,30.14,West,277,0.0,0.0,83,0.00,,,0.02,Wunderground v.1.15,2013-01-01 16:30:00,
2013-01-01 11:36:00,40.3,36.1,30.13,West,277,0.0,0.0,85,0.00,,,0.02,Wunderground v.1.15,2013-01-01 16:36:00,
2013-01-01 11:42:00,40.5,36.6,30.13,West,277,0.0,0.0,86,0.00,,,0.02,Wunderground v.1.15,2013-01-01 16:42:00,
2013-01-01 11:48:00,40.5,35.7,30.12,WNW,296,0.0,0.0,83,0.00,,,0.02,Wunderground v.1.15,2013-01-01 16:48:00,
2013-01-01 11:54:00,40.6,35.8,30.12,WNW,296,0.0,0.0,83,0.00,,,0.02,Wunderground v.1.15,2013-01-01 16:54:00,
2013-01-01 12:00:00,40.7,36.5,30.12,WNW,296,0.0,0.0,85,0.00,,,0.03,Wunderground v.1.15,2013-01-01 17:00:00,
2013-01-01 12:06:00,40.7,36.2,30.11,WNW,296,0.0,0.0,84,0.00,,,0.03,Wunderground v.1.15,2013-01-01 17:06:00,
2013-01-01 12:12:00,40.6,36.1,30.11,WNW,299,0.0,0.0,84,0.00,,,0.03,Wunderground v.1.15,2013-01-01 17:12:00,
2013-01-01 12:18:00,40.2,35.4,30.10,NW,312,0.0,0.0,83,0.00,,,0.04,Wunderground v.1.15,2013-01-01 17:18:00,
2013-01-01 12:24:00,39.8,35.4,30.10,NW,307,0.0,0.0,84,0.00,,,0.04,Wunderground v.1.15,2013-01-01 17:24:00,
2013-01-01 12:30:00,39.6,35.8,30.10,NW,307,0.0,0.0,86,0.05,,,0.05,Wunderground v.1.15,2013-01-01 17:30:00,
2013-01-01 12:36:00,39.5,35.7,30.09,NW,307,0.0,0.0,86,0.09,,,0.06,Wunderground v.1.15,2013-01-01 17:36:00,
2013-01-01 12:42:00,39.5,36.2,30.09,NW,307,0.0,0.0,88,0.09,,,0.06,Wunderground v.1.15,2013-01-01 17:42:00,
2013-01-01 12:48:00,39.6,36.9,30.08,NW,307,0.0,0.0,90,0.08,,,0.07,Wunderground v.1.15,2013-01-01 17:48:00,
2013-01-01 12:54:00,39.7,37.0,30.09,NW,307,0.0,0.0,90,0.10,,,0.08,Wunderground v.1.15,2013-01-01 17:54:00,
2013-01-01 13:00:00,39.7,37.0,30.08,NW,307,0.0,0.0,90,0.11,,,0.10,Wunderground v.1.15,2013-01-01 18:00:00,
2013-01-01 13:06:00,39.8,37.4,30.08,NW,307,0.0,0.0,91,0.10,,,0.10,Wunderground v.1.15,2013-01-01 18:06:00,
2013-01-01 13:12:00,39.8,37.4,30.08,NW,307,0.0,0.0,91,0.07,,,0.11,Wunderground v.1.15,2013-01-01 18:12:00,
2013-01-01 13:18:00,39.9,37.5,30.07,NW,307,0.0,0.0,91,0.07,,,0.12,Wunderground v.1.15,2013-01-01 18:18:00,
2013-01-01 13:24:00,40.0,37.9,30.07,NW,307,0.0,0.0,92,0.07,,,0.12,Wunderground v.1.15,2013-01-01 18:24:00,
2013-01-01 13:30:00,40.1,38.0,30.06,NW,307,0.0,0.0,92,0.05,,,0.12,Wunderground v.1.15,2013-01-01 18:30:00,
2013-01-01 13:36:00,40.2,38.1,30.06,NW,307,0.0,0.0,92,0.04,,,0.13,Wunderground v.1.15,2013-01-01 18:36:00,
2013-01-01 13:42:00,40.3,38.4,30.06,NW,307,0.0,0.0,93,0.04,,,0.13,Wunderground v.1.15,2013-01-01 18:42:00,
2013-01-01 13:48:00,40.5,38.6,30.06,NW,307,0.0,0.0,93,0.00,,,0.13,Wunderground v.1.15,2013-01-01 18:48:00,
2013-01-01 13:54:00,40.5,38.6,30.05,NW,307,0.0,0.0,93,0.00,,,0.14,Wunderground v.1.15,2013-01-01 18:54:00,
2013-01-01 14:00:00,40.4,38.5,30.06,NW,307,0.0,0.0,93,0.06,,,0.14,Wunderground v.1.15,2013-01-01 19:00:00,
2013-01-01 14:06:00,40.4,38.5,30.05,NW,307,0.0,0.0,93,0.06,,,0.15,Wunderground v.1.15,2013-01-01 19:06:00,
2013-01-01 14:12:00,40.5,38.9,30.05,NW,307,0.0,0.0,94,0.08,,,0.16,Wunderground v.1.15,2013-01-01 19:12:00,
2013-01-01 14:18:00,40.6,39.0,30.05,NW,307,0.0,0.0,94,0.05,,,0.16,Wunderground v.1.15,2013-01-01 19:18:00,
2013-01-01 14:24:00,40.7,39.1,30.05,NW,308,0.0,0.0,94,0.04,,,0.16,Wunderground v.1.15,2013-01-01 19:24:00,
2013-01-01 14:30:00,40.8,39.2,30.05,NW,308,0.0,0.0,94,0.00,,,0.17,Wunderground v.1.15,2013-01-01 19:30:00,
2013-01-01 14:36:00,40.9,39.3,30.05,WNW,302,0.0,0.0,94,0.00,,,0.17,Wunderground v.1.15,2013-01-01 19:36:00,
2013-01-01 14:42:00,41.1,39.5,30.05,NW,304,0.0,0.0,94,0.05,,,0.18,Wunderground v.1.15,2013-01-01 19:42:00,
2013-01-01 14:48:00,41.1,39.5,30.04,NW,304,0.0,0.0,94,0.06,,,0.19,Wunderground v.1.15,2013-01-01 19:48:00,
2013-01-01 14:54:00,41.1,39.5,30.04,NW,304,0.0,0.0,94,0.06,,,0.19,Wunderground v.1.15,2013-01-01 19:54:00,
2013-01-01 15:00:00,41.1,39.5,30.04,NW,304,0.0,0.0,94,0.04,,,0.19,Wunderground v.1.15,2013-01-01 20:00:00,
2013-01-01 15:06:00,41.3,40.0,30.04,NW,304,0.0,0.0,95,0.00,,,0.19,Wunderground v.1.15,2013-01-01 20:06:00,
2013-01-01 15:12:00,41.5,40.2,30.04,NW,304,0.0,0.0,95,0.00,,,0.19,Wunderground v.1.15,2013-01-01 20:12:00,
2013-01-01 15:18:00,41.7,40.4,30.04,WNW,298,0.0,0.0,95,0.00,,,0.19,Wunderground v.1.15,2013-01-01 20:18:00,
2013-01-01 15:24:00,41.8,40.5,30.04,WNW,290,0.0,0.0,95,0.00,,,0.19,Wunderground v.1.15,2013-01-01 20:24:00,
2013-01-01 15:30:00,41.7,40.1,30.05,WNW,290,0.0,0.0,94,0.00,,,0.19,Wunderground v.1.15,2013-01-01 20:30:00,
2013-01-01 15:36:00,41.8,40.5,30.04,WNW,290,0.0,0.0,95,0.00,,,0.19,Wunderground v.1.15,2013-01-01 20:36:00,
2013-01-01 15:42:00,41.8,40.5,30.05,WNW,290,0.0,0.0,95,0.00,,,0.19,Wunderground v.1.15,2013-01-01 20:42:00,
2013-01-01 15:48:00,41.8,40.5,30.05,WNW,290,0.0,0.0,95,0.00,,,0.19,Wunderground v.1.15,2013-01-01 20:48:00,
2013-01-01 15:54:00,41.9,40.6,30.05,WNW,290,0.0,0.0,95,0.00,,,0.19,Wunderground v.1.15,2013-01-01 20:54:00,
2013-01-01 16:00:00,42.0,40.7,30.05,WNW,290,0.0,0.0,95,0.00,,,0.20,Wunderground v.1.15,2013-01-01 21:00:00,
2013-01-01 16:06:00,42.2,40.9,30.05,WNW,290,0.0,0.0,95,0.00,,,0.20,Wunderground v.1.15,2013-01-01 21:06:00,
2013-01-01 16:12:00,42.3,41.0,30.05,WNW,290,0.0,0.0,95,0.00,,,0.20,Wunderground v.1.15,2013-01-01 21:12:00,
2013-01-01 16:18:00,42.3,41.0,30.05,WNW,290,0.0,0.0,95,0.00,,,0.20,Wunderground v.1.15,2013-01-01 21:18:00,
2013-01-01 16:24:00,42.4,41.1,30.05,WNW,290,0.0,0.0,95,0.00,,,0.20,Wunderground v.1.15,2013-01-01 21:24:00,
2013-01-01 16:30:00,42.4,41.1,30.06,WNW,290,0.0,0.0,95,0.00,,,0.20,Wunderground v.1.15,2013-01-01 21:30:00,
2013-01-01 16:36:00,42.5,41.2,30.06,WNW,290,0.0,0.0,95,0.00,,,0.20,Wunderground v.1.15,2013-01-01 21:36:00,
2013-01-01 16:42:00,42.5,41.2,30.06,WNW,290,0.0,0.0,95,0.00,,,0.20,Wunderground v.1.15,2013-01-01 21:42:00,
2013-01-01 16:48:00,42.5,41.2,30.06,WNW,290,0.0,0.0,95,0.00,,,0.21,Wunderground v.1.15,2013-01-01 21:48:00,
2013-01-01 16:54:00,42.7,41.4,30.06,WNW,290,0.0,0.0,95,0.00,,,0.21,Wunderground v.1.15,2013-01-01 21:54:00,
2013-01-01 17:00:00,42.7,41.4,30.06,WNW,290,0.0,0.0,95,0.00,,,0.21,Wunderground v.1.15,2013-01-01 22:00:00,
2013-01-01 17:06:00,42.8,41.5,30.06,WNW,290,0.0,0.0,95,0.04,,,0.22,Wunderground v.1.15,2013-01-01 22:06:00,
2013-01-01 17:12:00,42.8,41.5,30.06,WNW,290,0.0,0.0,95,0.04,,,0.22,Wunderground v.1.15,2013-01-01 22:12:00,
2013-01-01 17:18:00,42.8,41.5,30.06,WNW,290,0.0,0.0,95,0.00,,,0.22,Wunderground v.1.15,2013-01-01 22:18:00,
2013-01-01 17:24:00,42.8,41.5,30.05,WNW,290,0.0,0.0,95,0.00,,,0.23,Wunderground v.1.15,2013-01-01 22:24:00,
2013-01-01 17:30:00,42.8,41.5,30.05,WNW,290,0.0,0.0,95,0.00,,,0.23,Wunderground v.1.15,2013-01-01 22:30:00,
2013-01-01 17:36:00,42.7,41.4,30.04,WNW,290,0.0,0.0,95,0.00,,,0.23,Wunderground v.1.15,2013-01-01 22:36:00,
2013-01-01 17:42:00,42.6,41.3,30.05,WNW,290,0.0,0.0,95,0.00,,,0.24,Wunderground v.1.15,2013-01-01 22:42:00,
2013-01-01 17:48:00,42.5,41.2,30.04,WNW,290,0.0,0.0,95,0.00,,,0.24,Wunderground v.1.15,2013-01-01 22:48:00,
2013-01-01 17:54:00,42.5,41.2,30.04,WNW,290,0.0,0.0,95,0.00,,,0.24,Wunderground v.1.15,2013-01-01 22:54:00,
2013-01-01 18:00:00,42.4,41.3,30.04,WNW,290,0.0,0.0,96,0.00,,,0.24,Wunderground v.1.15,2013-01-01 23:00:00,
2013-01-01 18:06:00,42.4,41.3,30.05,WNW,290,0.0,0.0,96,0.00,,,0.24,Wunderground v.1.15,2013-01-01 23:06:00,
2013-01-01 18:12:00,42.3,41.2,30.04,WNW,290,0.0,0.0,96,0.00,,,0.24,Wunderground v.1.15,2013-01-01 23:12:00,
2013-01-01 18:18:00,42.3,41.2,30.03,WNW,290,0.0,0.0,96,0.00,,,0.25,Wunderground v.1.15,2013-01-01 23:18:00,
2013-01-01 18:24:00,42.3,41.2,30.04,WNW,290,0.0,0.0,96,0.00,,,0.25,Wunderground v.1.15,2013-01-01 23:24:00,
2013-01-01 18:30:00,42.4,41.3,30.03,WNW,290,0.0,0.0,96,0.00,,,0.25,Wunderground v.1.15,2013-01-01 23:30:00,
2013-01-01 18:36:00,42.5,41.4,30.04,WNW,290,0.0,0.0,96,0.00,,,0.25,Wunderground v.1.15,2013-01-01 23:36:00,
2013-01-01 18:42:00,42.5,41.4,30.04,WNW,290,0.0,0.0,96,0.00,,,0.25,Wunderground v.1.15,2013-01-01 23:42:00,
2013-01-01 18:48:00,42.5,41.4,30.04,WNW,290,0.0,0.0,96,0.00,,,0.25,Wunderground v.1.15,2013-01-01 23:48:00,
2013-01-01 18:54:00,42.5,41.4,30.05,WNW,290,0.0,0.0,96,0.00,,,0.25,Wunderground v.1.15,2013-01-01 23:54:00,
2013-01-01 19:00:00,42.5,41.4,30.06,WNW,290,0.0,0.0,96,0.00,,,0.25,Wunderground v.1.15,2013-01-02 00:00:00,
2013-01-01 19:06:00,42.5,41.4,30.07,WNW,289,0.0,0.0,96,0.00,,,0.26,Wunderground v.1.15,2013-01-02 00:06:00,
2013-01-01 19:12:00,42.6,41.5,30.07,WNW,289,0.0,0.0,96,0.08,,,0.27,Wunderground v.1.15,2013-01-02 00:12:00,
2013-01-01 19:18:00,42.6,41.5,30.06,WNW,292,0.0,0.0,96,0.10,,,0.28,Wunderground v.1.15,2013-01-02 00:18:00,
2013-01-01 19:24:00,42.8,41.7,30.06,NW,315,0.0,0.0,96,0.09,,,0.28,Wunderground v.1.15,2013-01-02 00:24:00,
2013-01-01 19:30:00,42.9,41.8,30.05,NW,315,0.0,0.0,96,0.05,,,0.29,Wunderground v.1.15,2013-01-02 00:30:00,
2013-01-01 19:36:00,42.9,41.8,30.05,NW,315,0.0,0.0,96,0.05,,,0.29,Wunderground v.1.15,2013-01-02 00:36:00,
2013-01-01 19:42:00,42.7,41.6,30.05,NW,315,0.0,0.0,96,0.04,,,0.29,Wunderground v.1.15,2013-01-02 00:42:00,
2013-01-01 19:48:00,42.7,41.6,30.05,NW,315,0.0,0.0,96,0.00,,,0.29,Wunderground v.1.15,2013-01-02 00:48:00,
2013-01-01 19:54:00,42.7,41.6,30.05,NW,315,0.0,0.0,96,0.00,,,0.29,Wunderground v.1.15,2013-01-02 00:54:00,
2013-01-01 20:00:00,42.7,41.6,30.06,NW,315,0.0,0.0,96,0.00,,,0.29,Wunderground v.1.15,2013-01-02 01:00:00,
2013-01-01 20:06:00,42.7,41.6,30.06,NW,315,0.0,0.0,96,0.00,,,0.29,Wunderground v.1.15,2013-01-02 01:06:00,
2013-01-01 20:12:00,42.7,41.6,30.06,NW,315,0.0,0.0,96,0.00,,,0.29,Wunderground v.1.15,2013-01-02 01:12:00,
2013-01-01 20:18:00,42.7,41.6,30.05,NW,315,0.0,0.0,96,0.00,,,0.30,Wunderground v.1.15,2013-01-02 01:18:00,
2013-01-01 20:24:00,42.7,41.6,30.05,NW,315,0.0,0.0,96,0.00,,,0.30,Wunderground v.1.15,2013-01-02 01:24:00,
2013-01-01 20:30:00,42.8,42.0,30.05,NW,315,0.0,0.0,97,0.00,,,0.30,Wunderground v.1.15,2013-01-02 01:30:00,
2013-01-01 20:36:00,42.8,42.0,30.05,NW,315,0.0,0.0,97,0.00,,,0.30,Wunderground v.1.15,2013-01-02 01:36:00,
2013-01-01 20:42:00,42.8,42.0,30.04,NW,315,0.0,0.0,97,0.00,,,0.30,Wunderground v.1.15,2013-01-02 01:42:00,
2013-01-01 20:48:00,42.7,41.6,30.04,NW,315,0.0,0.0,96,0.00,,,0.30,Wunderground v.1.15,2013-01-02 01:48:00,
2013-01-01 20:54:00,42.7,41.6,30.05,NW,315,0.0,0.0,96,0.00,,,0.30,Wunderground v.1.15,2013-01-02 01:54:00,
2013-01-01 21:00:00,42.7,41.6,30.05,NW,315,0.0,0.0,96,0.00,,,0.31,Wunderground v.1.15,2013-01-02 02:00:00,
2013-01-01 21:06:00,42.7,41.6,30.05,NW,315,0.0,0.0,96,0.00,,,0.31,Wunderground v.1.15,2013-01-02 02:06:00,
2013-01-01 21:12:00,42.7,41.6,30.05,NW,315,0.0,0.0,96,0.00,,,0.31,Wunderground v.1.15,2013-01-02 02:12:00,
2013-01-01 21:18:00,42.6,41.5,30.05,NW,315,0.0,0.0,96,0.00,,,0.32,Wunderground v.1.15,2013-01-02 02:18:00,
2013-01-01 21:24:00,42.6,41.5,30.05,NW,315,0.0,0.0,96,0.00,,,0.32,Wunderground v.1.15,2013-01-02 02:24:00,
2013-01-01 21:30:00,42.6,41.5,30.05,NW,315,0.0,0.0,96,0.06,,,0.33,Wunderground v.1.15,2013-01-02 02:30:00,
2013-01-01 21:36:00,42.6,41.8,30.04,NW,315,0.0,0.0,97,0.06,,,0.33,Wunderground v.1.15,2013-01-02 02:36:00,
2013-01-01 21:42:00,42.8,42.0,30.04,NW,315,0.0,0.0,97,0.06,,,0.34,Wunderground v.1.15,2013-01-02 02:42:00,
2013-01-01 21:48:00,42.9,42.1,30.04,NW,315,0.0,0.0,97,0.05,,,0.34,Wunderground v.1.15,2013-01-02 02:48:00,
2013-01-01 21:54:00,43.1,42.3,30.04,NW,315,0.0,0.0,97,0.04,,,0.35,Wunderground v.1.15,2013-01-02 02:54:00,
2013-01-01 22:00:00,42.9,42.1,30.03,NW,315,0.0,0.0,97,0.04,,,0.35,Wunderground v.1.15,2013-01-02 03:00:00,
2013-01-01 22:06:00,42.9,42.1,30.03,NW,315,0.0,0.0,97,0.06,,,0.36,Wunderground v.1.15,2013-01-02 03:06:00,
2013-01-01 22:12:00,42.9,42.1,30.03,NW,315,0.0,0.0,97,0.07,,,0.37,Wunderground v.1.15,2013-01-02 03:12:00,
2013-01-01 22:18:00,42.9,42.1,30.03,NW,315,0.0,0.0,97,0.07,,,0.37,Wunderground v.1.15,2013-01-02 03:18:00,
2013-01-01 22:24:00,42.9,42.1,30.04,NW,315,0.0,0.0,97,0.07,,,0.38,Wunderground v.1.15,2013-01-02 03:24:00,
2013-01-01 22:30:00,42.9,42.1,30.04,NW,315,0.0,0.0,97,0.06,,,0.38,Wunderground v.1.15,2013-01-02 03:30:00,
2013-01-01 22:36:00,42.9,42.1,30.04,NW,315,0.0,0.0,97,0.05,,,0.39,Wunderground v.1.15,2013-01-02 03:36:00,
2013-01-01 22:42:00,42.9,42.1,30.04,NW,315,0.0,0.0,97,0.07,,,0.40,Wunderground v.1.15,2013-01-02 03:42:00,
2013-01-01 22:48:00,42.9,42.1,30.04,NW,315,0.0,0.0,97,0.07,,,0.41,Wunderground v.1.15,2013-01-02 03:48:00,
2013-01-01 22:54:00,42.9,42.1,30.03,NW,315,0.0,0.0,97,0.07,,,0.41,Wunderground v.1.15,2013-01-02 03:54:00,
2013-01-01 23:00:00,42.9,42.1,30.03,NW,315,0.0,0.0,97,0.06,,,0.42,Wunderground v.1.15,2013-01-02 04:00:00,
2013-01-01 23:06:00,43.0,42.2,30.03,NW,313,0.0,0.0,97,0.06,,,0.42,Wunderground v.1.15,2013-01-02 04:06:00,
2013-01-01 23:12:00,43.1,42.3,30.03,West,277,0.0,0.0,97,0.04,,,0.42,Wunderground v.1.15,2013-01-02 04:12:00,
2013-01-01 23:18:00,43.3,42.5,30.03,West,279,0.0,0.0,97,0.00,,,0.42,Wunderground v.1.15,2013-01-02 04:18:00,
2013-01-01 23:24:00,43.4,42.6,30.03,West,281,0.0,0.0,97,0.00,,,0.42,Wunderground v.1.15,2013-01-02 04:24:00,
2013-01-01 23:30:00,43.5,42.7,30.04,West,276,0.0,0.0,97,0.00,,,0.42,Wunderground v.1.15,2013-01-02 04:30:00,
2013-01-01 23:36:00,43.6,42.8,30.03,WNW,299,0.0,0.0,97,0.00,,,0.42,Wunderground v.1.15,2013-01-02 04:36:00,
2013-01-01 23:42:00,43.7,42.9,30.02,WNW,297,0.0,0.0,97,0.00,,,0.42,Wunderground v.1.15,2013-01-02 04:42:00,
2013-01-01 23:48:00,43.7,42.9,30.03,WNW,302,0.0,0.0,97,0.00,,,0.43,Wunderground v.1.15,2013-01-02 04:48:00,
2013-01-01 23:54:00,43.7,42.9,30.03,NW,306,0.0,0.0,97,0.00,,,0.43,Wunderground v.1.15,2013-01-02 04:54:00,